sensor_id;sensor_type;location;lat;lon;timestamp;temperature;humidity
22145;DHT22;11238;48.730;11.566;2023-07-24T00:00:23;18.50;92.90
22145;DHT22;11238;48.730;11.566;2023-07-24T00:02:49;18.40;92.60
22145;DHT22;11238;48.730;11.566;2023-07-24T00:05:15;18.40;93.60
22145;DHT22;11238;48.730;11.566;2023-07-24T00:07:40;18.40;93.00
22145;DHT22;11238;48.730;11.566;2023-07-24T00:10:06;18.30;93.20
22145;DHT22;11238;48.730;11.566;2023-07-24T00:12:32;18.40;92.90
22145;DHT22;11238;48.730;11.566;2023-07-24T00:14:58;18.40;92.70
22145;DHT22;11238;48.730;11.566;2023-07-24T00:17:24;18.40;92.80
22145;DHT22;11238;48.730;11.566;2023-07-24T00:19:49;18.30;92.30
22145;DHT22;11238;48.730;11.566;2023-07-24T00:22:15;18.30;92.50
22145;DHT22;11238;48.730;11.566;2023-07-24T00:24:41;18.30;92.60
22145;DHT22;11238;48.730;11.566;2023-07-24T00:27:06;18.20;94.60
22145;DHT22;11238;48.730;11.566;2023-07-24T00:29:32;17.90;94.80
22145;DHT22;11238;48.730;11.566;2023-07-24T00:31:58;17.80;95.30
22145;DHT22;11238;48.730;11.566;2023-07-24T00:34:23;17.30;95.90
22145;DHT22;11238;48.730;11.566;2023-07-24T00:36:49;17.10;97.10
22145;DHT22;11238;48.730;11.566;2023-07-24T00:39:15;17.10;97.80
22145;DHT22;11238;48.730;11.566;2023-07-24T00:41:41;17.10;98.10
22145;DHT22;11238;48.730;11.566;2023-07-24T00:44:07;17.10;98.00
22145;DHT22;11238;48.730;11.566;2023-07-24T00:46:34;17.10;99.10
22145;DHT22;11238;48.730;11.566;2023-07-24T00:49:02;17.10;99.30
22145;DHT22;11238;48.730;11.566;2023-07-24T00:51:29;17.10;99.50
22145;DHT22;11238;48.730;11.566;2023-07-24T00:54:02;17.20;98.70
22145;DHT22;11238;48.730;11.566;2023-07-24T00:56:29;17.30;98.50
22145;DHT22;11238;48.730;11.566;2023-07-24T00:58:56;17.30;99.60
22145;DHT22;11238;48.730;11.566;2023-07-24T01:01:22;17.40;99.90
22145;DHT22;11238;48.730;11.566;2023-07-24T01:03:49;17.40;98.40
22145;DHT22;11238;48.730;11.566;2023-07-24T01:06:15;17.50;98.10
22145;DHT22;11238;48.730;11.566;2023-07-24T01:08:41;17.20;99.90
22145;DHT22;11238;48.730;11.566;2023-07-24T01:11:19;17.30;99.50
22145;DHT22;11238;48.730;11.566;2023-07-24T01:14:02;17.30;99.90
22145;DHT22;11238;48.730;11.566;2023-07-24T01:16:48;17.40;99.90
22145;DHT22;11238;48.730;11.566;2023-07-24T01:19:37;17.30;99.90
22145;DHT22;11238;48.730;11.566;2023-07-24T01:22:25;17.30;99.90
22145;DHT22;11238;48.730;11.566;2023-07-24T01:27:43;17.30;99.90
22145;DHT22;11238;48.730;11.566;2023-07-24T01:30:10;17.20;99.90
22145;DHT22;11238;48.730;11.566;2023-07-24T01:32:36;17.30;99.90
22145;DHT22;11238;48.730;11.566;2023-07-24T01:35:02;17.30;99.90
22145;DHT22;11238;48.730;11.566;2023-07-24T01:37:29;17.30;99.90
22145;DHT22;11238;48.730;11.566;2023-07-24T01:39:55;17.40;99.90
22145;DHT22;11238;48.730;11.566;2023-07-24T01:42:23;17.40;99.90
22145;DHT22;11238;48.730;11.566;2023-07-24T01:44:54;17.50;99.90
22145;DHT22;11238;48.730;11.566;2023-07-24T01:47:21;17.60;99.90
22145;DHT22;11238;48.730;11.566;2023-07-24T01:49:48;17.50;99.90
22145;DHT22;11238;48.730;11.566;2023-07-24T01:52:13;17.70;99.90
22145;DHT22;11238;48.730;11.566;2023-07-24T01:54:39;17.70;99.90
22145;DHT22;11238;48.730;11.566;2023-07-24T01:57:05;17.60;99.90
22145;DHT22;11238;48.730;11.566;2023-07-24T01:59:31;17.60;99.90
22145;DHT22;11238;48.730;11.566;2023-07-24T02:01:56;17.50;99.90
22145;DHT22;11238;48.730;11.566;2023-07-24T02:04:22;17.50;99.90
22145;DHT22;11238;48.730;11.566;2023-07-24T02:06:49;17.60;99.90
22145;DHT22;11238;48.730;11.566;2023-07-24T02:09:15;17.70;99.90
22145;DHT22;11238;48.730;11.566;2023-07-24T02:11:42;17.70;99.90
22145;DHT22;11238;48.730;11.566;2023-07-24T02:14:07;17.70;99.90
22145;DHT22;11238;48.730;11.566;2023-07-24T02:16:33;17.70;99.90
22145;DHT22;11238;48.730;11.566;2023-07-24T02:18:59;17.80;99.90
22145;DHT22;11238;48.730;11.566;2023-07-24T02:21:25;17.80;99.90
22145;DHT22;11238;48.730;11.566;2023-07-24T02:23:53;17.80;99.90
22145;DHT22;11238;48.730;11.566;2023-07-24T02:26:20;17.70;99.90
22145;DHT22;11238;48.730;11.566;2023-07-24T02:28:46;17.70;99.90
22145;DHT22;11238;48.730;11.566;2023-07-24T02:31:13;17.70;99.90
22145;DHT22;11238;48.730;11.566;2023-07-24T02:33:39;17.70;99.90
22145;DHT22;11238;48.730;11.566;2023-07-24T02:36:06;17.50;99.90
22145;DHT22;11238;48.730;11.566;2023-07-24T02:38:53;17.60;99.90
22145;DHT22;11238;48.730;11.566;2023-07-24T02:41:19;17.60;99.90
22145;DHT22;11238;48.730;11.566;2023-07-24T02:43:45;17.50;99.90
22145;DHT22;11238;48.730;11.566;2023-07-24T02:46:11;17.50;99.90
22145;DHT22;11238;48.730;11.566;2023-07-24T02:48:36;17.50;99.90
22145;DHT22;11238;48.730;11.566;2023-07-24T02:51:03;17.50;99.90
22145;DHT22;11238;48.730;11.566;2023-07-24T02:53:28;17.50;99.90
22145;DHT22;11238;48.730;11.566;2023-07-24T02:55:54;17.50;99.90
22145;DHT22;11238;48.730;11.566;2023-07-24T02:58:21;17.50;99.90
22145;DHT22;11238;48.730;11.566;2023-07-24T03:00:47;17.50;99.90
22145;DHT22;11238;48.730;11.566;2023-07-24T03:03:13;17.50;99.90
22145;DHT22;11238;48.730;11.566;2023-07-24T03:05:39;17.60;99.90
22145;DHT22;11238;48.730;11.566;2023-07-24T03:08:05;17.60;99.90
22145;DHT22;11238;48.730;11.566;2023-07-24T03:10:31;17.60;99.90
22145;DHT22;11238;48.730;11.566;2023-07-24T03:12:57;17.60;99.90
22145;DHT22;11238;48.730;11.566;2023-07-24T03:15:23;17.70;99.90
22145;DHT22;11238;48.730;11.566;2023-07-24T03:17:48;17.70;99.90
22145;DHT22;11238;48.730;11.566;2023-07-24T03:20:16;17.70;99.90
22145;DHT22;11238;48.730;11.566;2023-07-24T03:22:42;17.70;99.90
22145;DHT22;11238;48.730;11.566;2023-07-24T03:25:09;17.70;99.90
22145;DHT22;11238;48.730;11.566;2023-07-24T03:27:34;17.60;99.90
22145;DHT22;11238;48.730;11.566;2023-07-24T03:30:00;17.50;99.90
22145;DHT22;11238;48.730;11.566;2023-07-24T03:32:26;17.30;99.90
22145;DHT22;11238;48.730;11.566;2023-07-24T03:34:53;17.20;99.90
22145;DHT22;11238;48.730;11.566;2023-07-24T03:37:19;17.00;99.90
22145;DHT22;11238;48.730;11.566;2023-07-24T03:39:45;17.00;99.90
22145;DHT22;11238;48.730;11.566;2023-07-24T03:42:11;16.90;99.90
22145;DHT22;11238;48.730;11.566;2023-07-24T03:44:40;17.00;99.90
22145;DHT22;11238;48.730;11.566;2023-07-24T03:47:07;16.90;99.90
22145;DHT22;11238;48.730;11.566;2023-07-24T03:49:33;16.90;99.90
22145;DHT22;11238;48.730;11.566;2023-07-24T03:51:59;16.90;99.90
22145;DHT22;11238;48.730;11.566;2023-07-24T03:54:25;16.80;99.90
22145;DHT22;11238;48.730;11.566;2023-07-24T03:56:51;16.80;99.90
22145;DHT22;11238;48.730;11.566;2023-07-24T03:59:17;16.70;99.90
22145;DHT22;11238;48.730;11.566;2023-07-24T04:01:43;16.60;99.90
22145;DHT22;11238;48.730;11.566;2023-07-24T04:04:09;16.70;99.90
22145;DHT22;11238;48.730;11.566;2023-07-24T04:06:35;16.60;99.90
22145;DHT22;11238;48.730;11.566;2023-07-24T04:09:01;16.60;99.90
22145;DHT22;11238;48.730;11.566;2023-07-24T04:11:26;16.60;99.90
22145;DHT22;11238;48.730;11.566;2023-07-24T04:13:52;16.60;99.90
22145;DHT22;11238;48.730;11.566;2023-07-24T04:16:18;16.60;99.90
22145;DHT22;11238;48.730;11.566;2023-07-24T04:18:44;16.70;99.90
22145;DHT22;11238;48.730;11.566;2023-07-24T04:21:10;16.70;99.90
22145;DHT22;11238;48.730;11.566;2023-07-24T04:23:36;16.70;99.90
22145;DHT22;11238;48.730;11.566;2023-07-24T04:26:02;16.80;99.90
22145;DHT22;11238;48.730;11.566;2023-07-24T04:28:27;16.70;99.90
22145;DHT22;11238;48.730;11.566;2023-07-24T04:30:53;16.70;99.90
22145;DHT22;11238;48.730;11.566;2023-07-24T04:33:19;16.80;99.90
22145;DHT22;11238;48.730;11.566;2023-07-24T04:35:48;16.80;99.90
22145;DHT22;11238;48.730;11.566;2023-07-24T04:38:14;16.90;99.90
22145;DHT22;11238;48.730;11.566;2023-07-24T04:40:43;17.10;99.90
22145;DHT22;11238;48.730;11.566;2023-07-24T04:43:10;17.10;99.90
22145;DHT22;11238;48.730;11.566;2023-07-24T04:45:36;17.10;99.90
22145;DHT22;11238;48.730;11.566;2023-07-24T04:48:02;17.10;99.90
22145;DHT22;11238;48.730;11.566;2023-07-24T04:50:27;17.10;99.90
22145;DHT22;11238;48.730;11.566;2023-07-24T04:52:53;17.20;99.90
22145;DHT22;11238;48.730;11.566;2023-07-24T04:55:19;17.20;99.90
22145;DHT22;11238;48.730;11.566;2023-07-24T04:57:46;17.20;99.90
22145;DHT22;11238;48.730;11.566;2023-07-24T05:00:12;17.20;99.90
22145;DHT22;11238;48.730;11.566;2023-07-24T05:02:38;17.30;99.90
22145;DHT22;11238;48.730;11.566;2023-07-24T05:05:05;17.30;99.90
22145;DHT22;11238;48.730;11.566;2023-07-24T05:07:31;17.30;99.90
22145;DHT22;11238;48.730;11.566;2023-07-24T05:09:57;17.30;99.90
22145;DHT22;11238;48.730;11.566;2023-07-24T05:12:22;17.40;99.90
22145;DHT22;11238;48.730;11.566;2023-07-24T05:14:48;17.40;99.90
22145;DHT22;11238;48.730;11.566;2023-07-24T05:17:14;17.40;99.90
22145;DHT22;11238;48.730;11.566;2023-07-24T05:19:40;17.40;99.90
22145;DHT22;11238;48.730;11.566;2023-07-24T05:22:06;17.50;99.90
22145;DHT22;11238;48.730;11.566;2023-07-24T05:24:32;17.40;99.90
22145;DHT22;11238;48.730;11.566;2023-07-24T05:26:58;17.30;99.90
22145;DHT22;11238;48.730;11.566;2023-07-24T05:29:24;17.30;99.90
22145;DHT22;11238;48.730;11.566;2023-07-24T05:31:49;17.40;99.90
22145;DHT22;11238;48.730;11.566;2023-07-24T05:34:15;17.50;99.90
22145;DHT22;11238;48.730;11.566;2023-07-24T05:36:41;17.60;99.90
22145;DHT22;11238;48.730;11.566;2023-07-24T05:39:07;17.80;99.90
22145;DHT22;11238;48.730;11.566;2023-07-24T05:41:33;17.90;99.90
22145;DHT22;11238;48.730;11.566;2023-07-24T05:43:59;18.00;99.90
22145;DHT22;11238;48.730;11.566;2023-07-24T05:46:24;18.10;99.90
22145;DHT22;11238;48.730;11.566;2023-07-24T05:48:50;18.20;99.90
22145;DHT22;11238;48.730;11.566;2023-07-24T05:51:16;18.20;99.90
22145;DHT22;11238;48.730;11.566;2023-07-24T05:53:42;18.30;99.90
22145;DHT22;11238;48.730;11.566;2023-07-24T05:56:07;18.30;99.90
22145;DHT22;11238;48.730;11.566;2023-07-24T05:58:33;18.30;99.90
22145;DHT22;11238;48.730;11.566;2023-07-24T06:01:00;18.40;99.90
22145;DHT22;11238;48.730;11.566;2023-07-24T06:03:25;18.40;99.90
22145;DHT22;11238;48.730;11.566;2023-07-24T06:05:55;18.50;99.90
22145;DHT22;11238;48.730;11.566;2023-07-24T06:08:21;18.60;99.90
22145;DHT22;11238;48.730;11.566;2023-07-24T06:10:50;18.70;99.90
22145;DHT22;11238;48.730;11.566;2023-07-24T06:13:17;18.80;99.90
22145;DHT22;11238;48.730;11.566;2023-07-24T06:15:44;18.90;99.90
22145;DHT22;11238;48.730;11.566;2023-07-24T06:18:10;19.00;99.90
22145;DHT22;11238;48.730;11.566;2023-07-24T06:20:36;19.00;99.90
22145;DHT22;11238;48.730;11.566;2023-07-24T06:23:01;19.20;99.90
22145;DHT22;11238;48.730;11.566;2023-07-24T06:25:30;19.20;99.90
22145;DHT22;11238;48.730;11.566;2023-07-24T06:27:57;19.20;99.90
22145;DHT22;11238;48.730;11.566;2023-07-24T06:30:23;19.20;99.90
22145;DHT22;11238;48.730;11.566;2023-07-24T06:32:49;19.20;99.90
22145;DHT22;11238;48.730;11.566;2023-07-24T06:35:15;19.20;99.90
22145;DHT22;11238;48.730;11.566;2023-07-24T06:37:41;19.20;99.90
22145;DHT22;11238;48.730;11.566;2023-07-24T06:40:07;19.30;99.90
22145;DHT22;11238;48.730;11.566;2023-07-24T06:42:34;19.30;99.90
22145;DHT22;11238;48.730;11.566;2023-07-24T06:44:59;19.40;99.90
22145;DHT22;11238;48.730;11.566;2023-07-24T06:47:26;19.40;99.90
22145;DHT22;11238;48.730;11.566;2023-07-24T06:49:51;19.50;99.90
22145;DHT22;11238;48.730;11.566;2023-07-24T06:52:17;19.50;99.90
22145;DHT22;11238;48.730;11.566;2023-07-24T06:54:43;19.50;99.90
22145;DHT22;11238;48.730;11.566;2023-07-24T06:57:09;19.60;99.90
22145;DHT22;11238;48.730;11.566;2023-07-24T06:59:35;19.50;99.90
22145;DHT22;11238;48.730;11.566;2023-07-24T07:02:01;19.60;99.90
22145;DHT22;11238;48.730;11.566;2023-07-24T07:04:26;19.80;99.90
22145;DHT22;11238;48.730;11.566;2023-07-24T07:06:52;19.80;99.90
22145;DHT22;11238;48.730;11.566;2023-07-24T07:09:18;19.80;99.90
22145;DHT22;11238;48.730;11.566;2023-07-24T07:11:44;19.80;99.90
22145;DHT22;11238;48.730;11.566;2023-07-24T07:14:10;19.80;99.90
22145;DHT22;11238;48.730;11.566;2023-07-24T07:16:36;19.80;99.90
22145;DHT22;11238;48.730;11.566;2023-07-24T07:19:02;19.80;99.90
22145;DHT22;11238;48.730;11.566;2023-07-24T07:21:28;19.80;99.90
22145;DHT22;11238;48.730;11.566;2023-07-24T07:23:54;19.70;99.90
22145;DHT22;11238;48.730;11.566;2023-07-24T07:26:20;19.70;99.90
22145;DHT22;11238;48.730;11.566;2023-07-24T07:28:48;19.50;99.90
22145;DHT22;11238;48.730;11.566;2023-07-24T07:31:14;19.30;99.90
22145;DHT22;11238;48.730;11.566;2023-07-24T07:33:40;19.50;99.90
22145;DHT22;11238;48.730;11.566;2023-07-24T07:36:05;19.50;99.90
22145;DHT22;11238;48.730;11.566;2023-07-24T07:38:32;19.40;99.90
22145;DHT22;11238;48.730;11.566;2023-07-24T07:40:58;19.30;99.90
22145;DHT22;11238;48.730;11.566;2023-07-24T07:43:24;19.10;99.90
22145;DHT22;11238;48.730;11.566;2023-07-24T07:45:50;19.10;99.90
22145;DHT22;11238;48.730;11.566;2023-07-24T07:48:15;19.10;99.90
22145;DHT22;11238;48.730;11.566;2023-07-24T07:50:42;19.00;99.90
22145;DHT22;11238;48.730;11.566;2023-07-24T07:53:07;19.00;99.90
22145;DHT22;11238;48.730;11.566;2023-07-24T07:55:33;18.80;99.90
22145;DHT22;11238;48.730;11.566;2023-07-24T07:57:59;18.80;99.90
22145;DHT22;11238;48.730;11.566;2023-07-24T08:00:25;18.80;99.90
22145;DHT22;11238;48.730;11.566;2023-07-24T08:02:50;18.80;99.90
22145;DHT22;11238;48.730;11.566;2023-07-24T08:05:16;18.70;99.90
22145;DHT22;11238;48.730;11.566;2023-07-24T08:07:42;18.70;99.90
22145;DHT22;11238;48.730;11.566;2023-07-24T08:10:08;18.70;99.90
22145;DHT22;11238;48.730;11.566;2023-07-24T08:12:34;18.70;99.90
22145;DHT22;11238;48.730;11.566;2023-07-24T08:15:00;18.70;99.90
22145;DHT22;11238;48.730;11.566;2023-07-24T08:17:26;18.70;99.90
22145;DHT22;11238;48.730;11.566;2023-07-24T08:19:51;18.60;99.90
22145;DHT22;11238;48.730;11.566;2023-07-24T08:22:17;18.60;99.90
22145;DHT22;11238;48.730;11.566;2023-07-24T08:24:45;18.60;99.90
22145;DHT22;11238;48.730;11.566;2023-07-24T08:27:10;18.50;99.90
22145;DHT22;11238;48.730;11.566;2023-07-24T08:29:36;18.30;99.90
22145;DHT22;11238;48.730;11.566;2023-07-24T08:32:04;18.30;99.90
22145;DHT22;11238;48.730;11.566;2023-07-24T08:34:30;18.40;99.90
22145;DHT22;11238;48.730;11.566;2023-07-24T08:36:56;18.40;99.90
22145;DHT22;11238;48.730;11.566;2023-07-24T08:39:22;18.30;99.90
22145;DHT22;11238;48.730;11.566;2023-07-24T08:41:48;18.40;99.90
22145;DHT22;11238;48.730;11.566;2023-07-24T08:44:14;18.40;99.90
22145;DHT22;11238;48.730;11.566;2023-07-24T08:46:40;18.40;99.90
22145;DHT22;11238;48.730;11.566;2023-07-24T08:49:12;18.40;99.90
22145;DHT22;11238;48.730;11.566;2023-07-24T08:51:40;18.30;99.90
22145;DHT22;11238;48.730;11.566;2023-07-24T08:54:07;18.40;99.90
22145;DHT22;11238;48.730;11.566;2023-07-24T08:56:33;18.50;99.90
22145;DHT22;11238;48.730;11.566;2023-07-24T08:59:00;18.40;99.90
22145;DHT22;11238;48.730;11.566;2023-07-24T09:01:26;18.50;99.90
22145;DHT22;11238;48.730;11.566;2023-07-24T09:03:52;18.60;99.90
22145;DHT22;11238;48.730;11.566;2023-07-24T09:06:18;18.80;99.90
22145;DHT22;11238;48.730;11.566;2023-07-24T09:08:44;19.00;99.90
22145;DHT22;11238;48.730;11.566;2023-07-24T09:11:11;19.20;99.90
22145;DHT22;11238;48.730;11.566;2023-07-24T09:13:41;19.30;99.90
22145;DHT22;11238;48.730;11.566;2023-07-24T09:16:08;19.50;99.90
22145;DHT22;11238;48.730;11.566;2023-07-24T09:18:43;19.70;99.90
22145;DHT22;11238;48.730;11.566;2023-07-24T09:21:10;19.90;99.90
22145;DHT22;11238;48.730;11.566;2023-07-24T09:23:38;20.10;99.90
22145;DHT22;11238;48.730;11.566;2023-07-24T09:26:07;20.20;99.90
22145;DHT22;11238;48.730;11.566;2023-07-24T09:28:34;20.40;99.90
22145;DHT22;11238;48.730;11.566;2023-07-24T09:31:00;20.60;99.90
22145;DHT22;11238;48.730;11.566;2023-07-24T09:33:40;20.70;99.90
22145;DHT22;11238;48.730;11.566;2023-07-24T09:36:08;20.80;99.90
22145;DHT22;11238;48.730;11.566;2023-07-24T09:38:39;20.80;99.90
22145;DHT22;11238;48.730;11.566;2023-07-24T09:41:06;21.00;99.90
22145;DHT22;11238;48.730;11.566;2023-07-24T09:43:32;21.30;99.90
22145;DHT22;11238;48.730;11.566;2023-07-24T09:45:58;21.40;99.90
22145;DHT22;11238;48.730;11.566;2023-07-24T09:48:26;21.50;99.90
22145;DHT22;11238;48.730;11.566;2023-07-24T09:50:54;21.70;99.90
22145;DHT22;11238;48.730;11.566;2023-07-24T09:53:33;21.80;99.90
22145;DHT22;11238;48.730;11.566;2023-07-24T09:56:04;22.00;99.90
22145;DHT22;11238;48.730;11.566;2023-07-24T09:58:33;21.90;99.90
22145;DHT22;11238;48.730;11.566;2023-07-24T10:01:03;21.90;99.90
22145;DHT22;11238;48.730;11.566;2023-07-24T10:03:49;22.00;99.90
22145;DHT22;11238;48.730;11.566;2023-07-24T10:06:16;22.00;99.90
22145;DHT22;11238;48.730;11.566;2023-07-24T10:08:46;22.00;99.90
22145;DHT22;11238;48.730;11.566;2023-07-24T10:11:13;22.00;99.90
22145;DHT22;11238;48.730;11.566;2023-07-24T10:13:40;22.00;99.90
22145;DHT22;11238;48.730;11.566;2023-07-24T10:16:07;22.10;99.90
22145;DHT22;11238;48.730;11.566;2023-07-24T10:18:35;22.00;99.90
22145;DHT22;11238;48.730;11.566;2023-07-24T10:21:44;21.90;99.90
22145;DHT22;11238;48.730;11.566;2023-07-24T10:28:39;22.20;99.90
22145;DHT22;11238;48.730;11.566;2023-07-24T10:31:08;22.30;99.90
22145;DHT22;11238;48.730;11.566;2023-07-24T10:34:09;22.50;99.90
22145;DHT22;11238;48.730;11.566;2023-07-24T10:49:02;23.20;99.90
22145;DHT22;11238;48.730;11.566;2023-07-24T10:52:11;23.30;99.90
22145;DHT22;11238;48.730;11.566;2023-07-24T10:54:38;23.30;99.90
22145;DHT22;11238;48.730;11.566;2023-07-24T10:57:04;23.40;99.90
22145;DHT22;11238;48.730;11.566;2023-07-24T11:00:14;23.50;99.90
22145;DHT22;11238;48.730;11.566;2023-07-24T11:02:40;23.60;99.90
22145;DHT22;11238;48.730;11.566;2023-07-24T11:05:07;23.60;99.90
22145;DHT22;11238;48.730;11.566;2023-07-24T11:07:33;23.80;99.90
22145;DHT22;11238;48.730;11.566;2023-07-24T11:10:35;23.80;99.90
22145;DHT22;11238;48.730;11.566;2023-07-24T11:13:10;23.90;99.90
22145;DHT22;11238;48.730;11.566;2023-07-24T11:15:56;24.00;99.90
22145;DHT22;11238;48.730;11.566;2023-07-24T11:21:53;23.80;99.90
22145;DHT22;11238;48.730;11.566;2023-07-24T11:24:22;23.80;99.90
22145;DHT22;11238;48.730;11.566;2023-07-24T11:26:47;23.70;99.90
22145;DHT22;11238;48.730;11.566;2023-07-24T11:29:16;23.50;99.90
22145;DHT22;11238;48.730;11.566;2023-07-24T11:32:03;23.40;99.90
22145;DHT22;11238;48.730;11.566;2023-07-24T11:34:49;23.30;99.90
22145;DHT22;11238;48.730;11.566;2023-07-24T11:40:58;23.30;99.90
22145;DHT22;11238;48.730;11.566;2023-07-24T11:43:24;23.30;99.90
22145;DHT22;11238;48.730;11.566;2023-07-24T11:45:52;23.40;99.90
22145;DHT22;11238;48.730;11.566;2023-07-24T11:48:19;23.60;99.90
22145;DHT22;11238;48.730;11.566;2023-07-24T11:50:49;23.80;99.90
22145;DHT22;11238;48.730;11.566;2023-07-24T11:53:30;23.90;99.90
22145;DHT22;11238;48.730;11.566;2023-07-24T11:56:00;24.10;99.90
22145;DHT22;11238;48.730;11.566;2023-07-24T11:58:28;24.40;99.90
22145;DHT22;11238;48.730;11.566;2023-07-24T12:00:55;24.50;99.90
22145;DHT22;11238;48.730;11.566;2023-07-24T12:03:21;24.40;99.90
22145;DHT22;11238;48.730;11.566;2023-07-24T12:05:47;24.30;99.90
22145;DHT22;11238;48.730;11.566;2023-07-24T12:08:13;24.00;99.90
22145;DHT22;11238;48.730;11.566;2023-07-24T12:10:43;23.70;99.90
22145;DHT22;11238;48.730;11.566;2023-07-24T12:13:10;23.50;99.90
22145;DHT22;11238;48.730;11.566;2023-07-24T12:15:36;23.40;99.90
22145;DHT22;11238;48.730;11.566;2023-07-24T12:18:04;23.30;99.90
22145;DHT22;11238;48.730;11.566;2023-07-24T12:20:30;23.30;99.90
22145;DHT22;11238;48.730;11.566;2023-07-24T12:22:57;23.20;99.90
22145;DHT22;11238;48.730;11.566;2023-07-24T12:25:23;23.10;99.90
22145;DHT22;11238;48.730;11.566;2023-07-24T12:27:49;23.00;99.90
22145;DHT22;11238;48.730;11.566;2023-07-24T12:30:15;22.90;99.90
22145;DHT22;11238;48.730;11.566;2023-07-24T12:32:41;22.70;99.90
22145;DHT22;11238;48.730;11.566;2023-07-24T12:35:10;22.50;99.90
22145;DHT22;11238;48.730;11.566;2023-07-24T12:37:36;22.20;99.90
22145;DHT22;11238;48.730;11.566;2023-07-24T12:40:02;22.00;99.90
22145;DHT22;11238;48.730;11.566;2023-07-24T12:42:28;21.90;99.90
22145;DHT22;11238;48.730;11.566;2023-07-24T12:44:54;21.70;99.90
22145;DHT22;11238;48.730;11.566;2023-07-24T12:47:20;21.60;99.90
22145;DHT22;11238;48.730;11.566;2023-07-24T12:49:46;21.50;99.90
22145;DHT22;11238;48.730;11.566;2023-07-24T12:52:12;21.40;99.90
22145;DHT22;11238;48.730;11.566;2023-07-24T12:54:41;21.30;99.90
22145;DHT22;11238;48.730;11.566;2023-07-24T12:57:07;21.40;99.90
22145;DHT22;11238;48.730;11.566;2023-07-24T12:59:33;21.40;99.90
22145;DHT22;11238;48.730;11.566;2023-07-24T13:01:59;21.40;99.90
22145;DHT22;11238;48.730;11.566;2023-07-24T13:04:25;21.40;99.90
22145;DHT22;11238;48.730;11.566;2023-07-24T13:06:51;21.40;99.90
22145;DHT22;11238;48.730;11.566;2023-07-24T13:09:20;21.50;99.90
22145;DHT22;11238;48.730;11.566;2023-07-24T13:11:48;21.60;99.90
22145;DHT22;11238;48.730;11.566;2023-07-24T13:14:16;21.60;99.90
22145;DHT22;11238;48.730;11.566;2023-07-24T13:16:42;21.60;99.90
22145;DHT22;11238;48.730;11.566;2023-07-24T13:19:08;21.70;99.90
22145;DHT22;11238;48.730;11.566;2023-07-24T13:21:34;21.80;99.90
22145;DHT22;11238;48.730;11.566;2023-07-24T13:24:00;21.70;99.90
22145;DHT22;11238;48.730;11.566;2023-07-24T13:26:26;21.80;99.90
22145;DHT22;11238;48.730;11.566;2023-07-24T13:28:52;21.80;99.90
22145;DHT22;11238;48.730;11.566;2023-07-24T13:31:20;22.00;99.90
22145;DHT22;11238;48.730;11.566;2023-07-24T13:33:47;22.20;99.90
22145;DHT22;11238;48.730;11.566;2023-07-24T13:36:13;22.00;99.90
22145;DHT22;11238;48.730;11.566;2023-07-24T13:38:40;22.00;99.90
22145;DHT22;11238;48.730;11.566;2023-07-24T13:41:07;22.00;99.90
22145;DHT22;11238;48.730;11.566;2023-07-24T13:43:34;22.10;99.90
22145;DHT22;11238;48.730;11.566;2023-07-24T13:46:00;22.10;99.90
22145;DHT22;11238;48.730;11.566;2023-07-24T13:48:30;22.20;99.90
22145;DHT22;11238;48.730;11.566;2023-07-24T13:50:56;22.30;99.90
22145;DHT22;11238;48.730;11.566;2023-07-24T13:53:32;22.10;99.90
22145;DHT22;11238;48.730;11.566;2023-07-24T13:55:58;22.00;99.90
22145;DHT22;11238;48.730;11.566;2023-07-24T13:58:23;21.90;99.90
22145;DHT22;11238;48.730;11.566;2023-07-24T14:00:49;22.10;99.90
22145;DHT22;11238;48.730;11.566;2023-07-24T14:03:15;22.00;99.90
22145;DHT22;11238;48.730;11.566;2023-07-24T14:05:40;22.10;99.90
22145;DHT22;11238;48.730;11.566;2023-07-24T14:08:08;22.30;99.90
22145;DHT22;11238;48.730;11.566;2023-07-24T14:10:34;22.30;99.90
22145;DHT22;11238;48.730;11.566;2023-07-24T14:13:01;22.10;99.90
22145;DHT22;11238;48.730;11.566;2023-07-24T14:15:26;22.30;99.90
22145;DHT22;11238;48.730;11.566;2023-07-24T14:17:52;21.80;99.90
22145;DHT22;11238;48.730;11.566;2023-07-24T14:20:21;22.10;99.90
22145;DHT22;11238;48.730;11.566;2023-07-24T14:22:50;21.80;99.90
22145;DHT22;11238;48.730;11.566;2023-07-24T14:25:16;22.00;99.90
22145;DHT22;11238;48.730;11.566;2023-07-24T14:27:42;22.20;99.90
22145;DHT22;11238;48.730;11.566;2023-07-24T14:30:09;22.10;99.90
22145;DHT22;11238;48.730;11.566;2023-07-24T14:32:38;22.00;99.90
22145;DHT22;11238;48.730;11.566;2023-07-24T14:35:05;22.30;99.90
22145;DHT22;11238;48.730;11.566;2023-07-24T14:37:30;22.50;99.90
22145;DHT22;11238;48.730;11.566;2023-07-24T14:39:57;22.60;99.90
22145;DHT22;11238;48.730;11.566;2023-07-24T14:42:23;22.60;99.90
22145;DHT22;11238;48.730;11.566;2023-07-24T14:44:48;22.60;99.90
22145;DHT22;11238;48.730;11.566;2023-07-24T14:47:15;22.50;99.90
22145;DHT22;11238;48.730;11.566;2023-07-24T14:49:41;22.30;99.90
22145;DHT22;11238;48.730;11.566;2023-07-24T14:52:07;22.30;99.90
22145;DHT22;11238;48.730;11.566;2023-07-24T14:54:33;22.20;99.90
22145;DHT22;11238;48.730;11.566;2023-07-24T14:56:59;22.20;99.90
22145;DHT22;11238;48.730;11.566;2023-07-24T14:59:25;22.30;99.90
22145;DHT22;11238;48.730;11.566;2023-07-24T15:01:50;22.20;99.90
22145;DHT22;11238;48.730;11.566;2023-07-24T15:04:16;21.90;99.90
22145;DHT22;11238;48.730;11.566;2023-07-24T15:06:42;22.00;99.90
22145;DHT22;11238;48.730;11.566;2023-07-24T15:09:08;22.20;99.90
22145;DHT22;11238;48.730;11.566;2023-07-24T15:11:33;22.20;99.90
22145;DHT22;11238;48.730;11.566;2023-07-24T15:13:59;22.20;99.90
22145;DHT22;11238;48.730;11.566;2023-07-24T15:16:25;22.10;99.90
22145;DHT22;11238;48.730;11.566;2023-07-24T15:18:51;22.10;99.90
22145;DHT22;11238;48.730;11.566;2023-07-24T15:21:16;22.10;99.90
22145;DHT22;11238;48.730;11.566;2023-07-24T15:23:42;22.10;99.90
22145;DHT22;11238;48.730;11.566;2023-07-24T15:26:08;22.00;99.90
22145;DHT22;11238;48.730;11.566;2023-07-24T15:28:34;22.00;99.90
22145;DHT22;11238;48.730;11.566;2023-07-24T15:31:00;21.90;99.90
22145;DHT22;11238;48.730;11.566;2023-07-24T15:33:26;21.80;99.90
22145;DHT22;11238;48.730;11.566;2023-07-24T15:35:52;21.80;99.90
22145;DHT22;11238;48.730;11.566;2023-07-24T15:38:18;21.60;99.90
22145;DHT22;11238;48.730;11.566;2023-07-24T15:40:47;21.60;99.90
22145;DHT22;11238;48.730;11.566;2023-07-24T15:43:12;21.50;99.90